createdAt,value
2023-04-18T00:00:26.234Z,79.79
2023-04-18T00:02:54.322Z,80.01
2023-04-18T00:05:21.036Z,80.14
2023-04-18T00:07:47.984Z,80.07
2023-04-18T00:10:16.120Z,79.85
2023-04-18T00:12:42.329Z,79.94
2023-04-18T00:15:08.941Z,79.84
2023-04-18T00:17:38.157Z,79.98
2023-04-18T00:20:09.319Z,80.06
2023-04-18T00:22:41.631Z,80.42
2023-04-18T00:25:09.881Z,80.47
2023-04-18T00:27:37.850Z,80.70
2023-04-18T00:30:06.530Z,80.51
2023-04-18T00:32:32.459Z,80.42
2023-04-18T00:34:58.448Z,80.24
2023-04-18T00:37:24.345Z,80.11
2023-04-18T00:39:53.141Z,80.12
2023-04-18T00:42:23.847Z,80.04
2023-04-18T00:44:49.747Z,80.10
2023-04-18T00:47:19.089Z,80.17
2023-04-18T00:49:45.916Z,80.30
2023-04-18T00:52:12.448Z,80.23
2023-04-18T00:54:40.590Z,80.40
2023-04-18T00:57:07.515Z,80.35
2023-04-18T00:59:35.095Z,80.28
2023-04-18T01:02:04.649Z,80.75
2023-04-18T01:04:33.951Z,80.65
2023-04-18T01:07:01.714Z,80.87
2023-04-18T01:09:28.958Z,80.74
2023-04-18T01:11:54.861Z,80.76
2023-04-18T01:14:21.044Z,80.80
2023-04-18T01:16:47.958Z,80.70
2023-04-18T01:19:18.334Z,80.77
2023-04-18T01:21:44.832Z,80.65
2023-04-18T01:24:16.738Z,80.98
2023-04-18T01:26:48.989Z,80.97
2023-04-18T01:29:15.102Z,80.78
2023-04-18T01:31:41.443Z,80.71
2023-04-18T01:34:08.112Z,81.09
2023-04-18T01:36:36.058Z,81.09
2023-04-18T01:39:02.191Z,81.11
2023-04-18T01:41:31.734Z,81.15
2023-04-18T01:43:58.767Z,80.95
2023-04-18T01:46:26.054Z,81.19
2023-04-18T01:48:52.748Z,81.14
2023-04-18T01:51:19.753Z,81.21
2023-04-18T01:53:45.662Z,81.15
2023-04-18T01:56:11.742Z,81.08
2023-04-18T01:58:37.673Z,81.01
2023-04-18T02:01:03.832Z,81.01
2023-04-18T02:03:29.892Z,80.85
2023-04-18T02:05:56.516Z,80.88
2023-04-18T02:08:22.695Z,80.87
2023-04-18T02:10:48.743Z,81.03
2023-04-18T02:13:15.042Z,80.87
2023-04-18T02:15:42.937Z,81.11
2023-04-18T02:18:09.000Z,81.16
2023-04-18T02:20:35.629Z,80.96
2023-04-18T02:23:02.850Z,81.10
2023-04-18T02:25:29.813Z,81.23
2023-04-18T02:27:57.517Z,81.08
2023-04-18T02:30:25.061Z,81.08
2023-04-18T02:32:53.542Z,81.35
2023-04-18T02:35:24.160Z,81.32
2023-04-18T02:37:50.143Z,81.44
2023-04-18T02:40:17.460Z,81.32
2023-04-18T02:42:43.539Z,81.31
2023-04-18T02:45:12.418Z,81.40
2023-04-18T02:47:53.854Z,81.20
2023-04-18T02:50:21.940Z,81.02
2023-04-18T02:52:47.958Z,81.03
2023-04-18T02:55:15.188Z,81.08
2023-04-18T02:57:41.974Z,81.12
2023-04-18T03:00:21.804Z,81.24
2023-04-18T03:03:12.276Z,81.41
2023-04-18T03:05:51.264Z,81.38
2023-04-18T03:08:17.810Z,81.23
2023-04-18T03:10:44.972Z,81.41
2023-04-18T03:13:11.005Z,81.59
2023-04-18T03:15:37.377Z,81.50
2023-04-18T03:18:05.437Z,81.48
2023-04-18T03:20:33.973Z,81.41
2023-04-18T03:23:00.131Z,81.09
2023-04-18T03:25:26.606Z,81.19
2023-04-18T03:27:52.655Z,81.31
2023-04-18T03:30:20.244Z,81.12
2023-04-18T03:32:55.313Z,81.11
2023-04-18T03:35:21.463Z,81.09
2023-04-18T03:37:48.174Z,81.22
2023-04-18T03:40:21.435Z,81.31
2023-04-18T03:42:48.175Z,81.37
2023-04-18T03:45:15.275Z,81.43
2023-04-18T03:47:42.682Z,81.60
2023-04-18T03:50:09.336Z,81.41
2023-04-18T03:52:35.481Z,81.33
2023-04-18T03:55:04.082Z,81.43
2023-04-18T03:57:32.176Z,81.44
2023-04-18T03:59:58.932Z,81.34
2023-04-18T04:02:26.046Z,81.44
2023-04-18T04:04:52.316Z,81.29
2023-04-18T04:07:18.444Z,81.40
2023-04-18T04:09:44.703Z,81.21
2023-04-18T04:12:10.777Z,81.29
2023-04-18T04:14:36.704Z,81.50
2023-04-18T04:17:02.801Z,81.36
2023-04-18T04:19:29.269Z,81.23
2023-04-18T04:22:15.918Z,81.27
2023-04-18T04:24:42.149Z,81.42
2023-04-18T04:27:09.795Z,81.27
2023-04-18T04:29:38.406Z,81.22
2023-04-18T04:32:05.922Z,81.21
2023-04-18T04:34:36.191Z,81.22
2023-04-18T04:37:03.844Z,81.08
2023-04-18T04:39:31.306Z,81.02
2023-04-18T04:42:11.361Z,81.06
2023-04-18T04:44:44.515Z,81.05
2023-04-18T04:47:10.665Z,81.17
2023-04-18T04:49:37.818Z,81.10
2023-04-18T04:52:04.627Z,81.09
2023-04-18T04:54:30.528Z,81.20
2023-04-18T04:56:56.649Z,81.10
2023-04-18T04:59:22.712Z,81.10
2023-04-18T05:01:48.652Z,81.11
2023-04-18T05:04:15.434Z,81.09
2023-04-18T05:06:41.700Z,81.09
2023-04-18T05:09:07.653Z,80.97
2023-04-18T05:11:33.593Z,80.96
2023-04-18T05:13:59.782Z,80.90
2023-04-18T05:16:25.966Z,80.95
2023-04-18T05:18:51.789Z,80.93
2023-04-18T05:21:17.690Z,80.93
2023-04-18T05:23:43.666Z,81.04
2023-04-18T05:26:09.577Z,80.99
2023-04-18T05:28:35.512Z,80.90
2023-04-18T05:31:01.647Z,80.91
2023-04-18T05:33:29.390Z,80.77
2023-04-18T05:35:55.915Z,80.76
2023-04-18T05:38:22.040Z,80.64
2023-04-18T05:40:50.459Z,80.50
2023-04-18T05:43:19.281Z,80.46
2023-04-18T05:45:45.550Z,80.23
2023-04-18T05:48:11.871Z,80.04
2023-04-18T05:50:37.867Z,79.86
2023-04-18T05:53:03.891Z,79.64
2023-04-18T05:55:29.726Z,79.20
2023-04-18T05:57:55.702Z,78.55
2023-04-18T06:00:21.779Z,77.84
2023-04-18T06:02:49.069Z,77.56
2023-04-18T06:05:15.516Z,77.43
2023-04-18T06:07:41.931Z,77.19
2023-04-18T06:10:10.509Z,76.85
2023-04-18T06:12:36.549Z,75.90
2023-04-18T06:15:04.821Z,76.02
2023-04-18T06:17:30.873Z,75.71
2023-04-18T06:19:56.849Z,75.70
2023-04-18T06:22:22.819Z,75.28
2023-04-18T06:24:48.722Z,74.83
2023-04-18T06:27:27.762Z,74.80
2023-04-18T06:29:56.475Z,74.49
2023-04-18T06:32:22.409Z,74.81
2023-04-18T06:34:48.421Z,74.97
2023-04-18T06:37:14.308Z,74.66
2023-04-18T06:39:40.418Z,74.07
2023-04-18T06:42:06.456Z,73.19
2023-04-18T06:44:32.646Z,72.16
2023-04-18T06:46:58.601Z,71.41
2023-04-18T06:49:26.438Z,71.48
2023-04-18T06:51:52.773Z,71.31
2023-04-18T06:54:18.772Z,71.29
2023-04-18T06:56:45.085Z,70.20
2023-04-18T06:59:11.080Z,70.38
2023-04-18T07:01:43.656Z,69.74
2023-04-18T07:04:09.711Z,70.21
2023-04-18T07:06:35.842Z,69.80
2023-04-18T07:09:02.341Z,68.94
2023-04-18T07:11:28.281Z,68.85
2023-04-18T07:13:54.264Z,68.60
2023-04-18T07:16:20.461Z,68.40
2023-04-18T07:18:46.377Z,68.61
2023-04-18T07:21:12.297Z,68.30
2023-04-18T07:23:38.153Z,68.81
2023-04-18T07:26:05.318Z,68.67
2023-04-18T07:28:32.387Z,68.88
2023-04-18T07:31:00.551Z,69.26
2023-04-18T07:33:27.374Z,69.12
2023-04-18T07:35:53.358Z,69.03
2023-04-18T07:38:19.781Z,69.70
2023-04-18T07:40:45.766Z,69.56
2023-04-18T07:43:11.678Z,69.29
2023-04-18T07:45:37.748Z,69.07
2023-04-18T07:48:05.042Z,68.48
2023-04-18T07:50:30.993Z,68.54
2023-04-18T07:52:56.994Z,68.18
2023-04-18T07:55:23.380Z,67.54
2023-04-18T07:57:49.883Z,67.28
2023-04-18T08:00:17.549Z,67.36
2023-04-18T08:02:43.596Z,66.05
2023-04-18T08:05:10.079Z,66.63
2023-04-18T08:07:36.310Z,66.46
2023-04-18T08:10:02.752Z,66.17
2023-04-18T08:12:28.893Z,66.22
2023-04-18T08:14:54.788Z,66.73
2023-04-18T08:17:22.638Z,66.83
2023-04-18T08:19:48.581Z,66.71
2023-04-18T08:22:14.449Z,66.68
2023-04-18T08:24:41.703Z,67.03
2023-04-18T08:27:12.436Z,66.99
2023-04-18T08:29:38.309Z,67.61
2023-04-18T08:32:07.108Z,68.04
2023-04-18T08:34:35.727Z,68.56
2023-04-18T08:37:01.830Z,68.52
2023-04-18T08:39:27.730Z,68.53
2023-04-18T08:41:58.943Z,68.82
2023-04-18T08:44:28.635Z,68.90
2023-04-18T08:46:55.797Z,69.34
2023-04-18T08:49:22.042Z,69.66
2023-04-18T08:51:55.898Z,69.84
2023-04-18T08:54:21.822Z,70.09
2023-04-18T08:57:06.969Z,70.35
2023-04-18T08:59:34.908Z,70.65
2023-04-18T09:02:03.467Z,70.73
2023-04-18T09:04:44.164Z,70.73
2023-04-18T09:07:13.704Z,70.73
2023-04-18T09:09:53.711Z,70.61
2023-04-18T09:12:22.914Z,70.52
2023-04-18T09:14:56.893Z,70.64
2023-04-18T09:17:40.985Z,70.64
2023-04-18T09:20:10.088Z,70.65
2023-04-18T09:22:50.798Z,70.31
2023-04-18T09:25:47.908Z,70.15
2023-04-18T09:28:32.263Z,70.04
2023-04-18T09:31:09.509Z,69.86
2023-04-18T09:33:36.296Z,69.70
2023-04-18T09:36:23.298Z,69.90
2023-04-18T09:38:53.835Z,69.71
2023-04-18T09:41:22.484Z,69.66
2023-04-18T09:43:48.654Z,69.62
2023-04-18T09:46:16.903Z,69.57
2023-04-18T09:48:42.945Z,69.47
2023-04-18T09:51:13.678Z,69.67
2023-04-18T09:53:46.699Z,69.67
2023-04-18T09:56:19.949Z,69.52
2023-04-18T09:58:50.035Z,69.66
2023-04-18T10:01:18.959Z,69.49
2023-04-18T10:03:50.033Z,69.42
2023-04-18T10:06:16.565Z,69.28
2023-04-18T10:08:47.574Z,69.07
2023-04-18T10:11:14.063Z,69.05
2023-04-18T10:13:42.546Z,68.82
2023-04-18T10:16:09.883Z,68.28
2023-04-18T10:18:35.937Z,67.84
2023-04-18T10:21:03.499Z,67.59
2023-04-18T10:23:35.318Z,67.28
2023-04-18T10:26:03.808Z,67.43
2023-04-18T10:28:57.836Z,66.89
2023-04-18T10:31:28.546Z,66.27
2023-04-18T10:36:27.663Z,66.39
2023-04-18T10:39:19.452Z,66.32
2023-04-18T10:41:50.755Z,66.06
2023-04-18T10:44:22.044Z,65.63
2023-04-18T10:46:50.825Z,65.56
2023-04-18T10:49:26.241Z,65.77
2023-04-18T10:52:01.347Z,65.88
2023-04-18T10:54:46.700Z,66.16
2023-04-18T10:57:13.242Z,66.11
2023-04-18T10:59:43.163Z,66.15
2023-04-18T11:02:26.541Z,66.01
2023-04-18T11:04:55.144Z,65.75
2023-04-18T11:07:38.299Z,65.53
2023-04-18T11:10:07.326Z,66.01
2023-04-18T11:12:36.900Z,66.12
2023-04-18T11:15:10.942Z,66.15
2023-04-18T11:17:39.459Z,66.20
2023-04-18T11:20:10.761Z,65.90
2023-04-18T11:22:56.986Z,66.13
2023-04-18T11:25:32.070Z,65.53
2023-04-18T11:28:00.198Z,65.66
2023-04-18T11:30:27.131Z,64.92
2023-04-18T11:32:53.439Z,65.18
2023-04-18T11:35:19.290Z,65.25
2023-04-18T11:37:45.229Z,65.06
2023-04-18T11:40:13.662Z,64.89
2023-04-18T11:42:41.518Z,64.75
2023-04-18T11:45:14.960Z,64.50
2023-04-18T11:47:42.620Z,64.20
2023-04-18T11:50:11.469Z,63.81
2023-04-18T11:52:40.819Z,63.55
2023-04-18T11:55:24.108Z,63.39
2023-04-18T11:57:53.458Z,63.41
2023-04-18T12:00:38.271Z,63.05
2023-04-18T12:03:18.130Z,63.25
2023-04-18T12:05:44.857Z,63.34
2023-04-18T12:08:17.433Z,62.50
2023-04-18T12:10:50.004Z,61.97
2023-04-18T12:13:17.560Z,61.62
2023-04-18T12:15:46.195Z,61.26
2023-04-18T12:18:15.243Z,61.13
2023-04-18T12:20:49.375Z,60.77
2023-04-18T12:23:35.041Z,60.98
2023-04-18T12:26:06.576Z,60.49
2023-04-18T12:28:34.546Z,60.00
2023-04-18T12:31:01.270Z,59.53
2023-04-18T12:33:27.273Z,59.56
2023-04-18T12:35:53.660Z,59.43
2023-04-18T12:38:22.098Z,59.90
2023-04-18T12:40:49.314Z,59.95
2023-04-18T12:43:15.969Z,59.91
2023-04-18T12:45:41.984Z,60.17
2023-04-18T12:48:07.904Z,60.04
2023-04-18T12:50:34.246Z,60.04
2023-04-18T12:53:01.676Z,59.99
2023-04-18T12:55:28.524Z,59.84
2023-04-18T12:57:55.644Z,60.06
2023-04-18T13:00:26.008Z,60.13
2023-04-18T13:02:52.612Z,60.32
2023-04-18T13:05:24.701Z,60.42
2023-04-18T13:07:58.723Z,60.25
2023-04-18T13:10:31.553Z,60.08
2023-04-18T13:12:57.522Z,60.03
2023-04-18T13:15:23.736Z,60.30
2023-04-18T13:17:50.022Z,60.46
2023-04-18T13:20:16.097Z,60.54
2023-04-18T13:22:45.337Z,60.30
2023-04-18T13:25:11.394Z,60.26
2023-04-18T13:27:41.807Z,59.98
2023-04-18T13:30:10.683Z,60.02
2023-04-18T13:32:38.454Z,60.12
2023-04-18T13:35:08.147Z,60.03
2023-04-18T13:37:34.171Z,60.25
2023-04-18T13:40:00.249Z,60.52
2023-04-18T13:42:26.213Z,60.74
2023-04-18T13:44:52.157Z,60.89
2023-04-18T13:47:18.550Z,61.22
2023-04-18T13:49:44.573Z,61.56
2023-04-18T13:52:10.579Z,61.59
2023-04-18T13:54:36.961Z,61.58
2023-04-18T13:57:03.246Z,61.86
2023-04-18T13:59:31.792Z,62.67
2023-04-18T14:01:58.176Z,63.68
2023-04-18T14:04:24.751Z,64.67
2023-04-18T14:06:50.734Z,65.60
2023-04-18T14:09:17.422Z,66.43
2023-04-18T14:11:44.183Z,66.96
2023-04-18T14:14:10.278Z,67.19
2023-04-18T14:16:36.276Z,67.75
2023-04-18T14:19:02.381Z,67.79
2023-04-18T14:21:28.585Z,67.77
2023-04-18T14:23:54.870Z,67.28
2023-04-18T14:26:20.929Z,67.30
2023-04-18T14:28:47.043Z,66.50
2023-04-18T14:31:13.911Z,66.28
2023-04-18T14:33:40.667Z,66.76
2023-04-18T14:36:07.593Z,66.47
2023-04-18T14:38:33.562Z,66.27
2023-04-18T14:40:59.905Z,66.29
2023-04-18T14:43:26.750Z,66.30
2023-04-18T14:45:52.695Z,65.78
2023-04-18T14:48:18.702Z,66.35
2023-04-18T14:50:44.634Z,66.85
2023-04-18T14:53:11.391Z,67.09
2023-04-18T14:55:37.642Z,66.91
2023-04-18T14:58:03.671Z,66.76
2023-04-18T15:00:31.892Z,66.84
2023-04-18T15:02:57.968Z,66.88
2023-04-18T15:05:23.917Z,66.67
2023-04-18T15:07:51.346Z,66.82
2023-04-18T15:10:18.886Z,66.86
2023-04-18T15:12:46.164Z,67.00
2023-04-18T15:15:12.957Z,67.14
2023-04-18T15:17:39.162Z,67.27
2023-04-18T15:20:07.237Z,67.64
2023-04-18T15:22:34.258Z,67.93
2023-04-18T15:25:00.236Z,68.53
2023-04-18T15:27:26.176Z,68.76
2023-04-18T15:29:52.752Z,68.95
2023-04-18T15:32:18.862Z,69.20
2023-04-18T15:34:44.870Z,69.31
2023-04-18T15:37:10.770Z,69.47
2023-04-18T15:39:37.793Z,69.39
2023-04-18T15:42:03.922Z,69.48
2023-04-18T15:44:32.832Z,69.92
2023-04-18T15:47:00.645Z,69.83
2023-04-18T15:49:27.054Z,70.07
2023-04-18T15:51:52.922Z,70.25
2023-04-18T15:54:18.851Z,70.14
2023-04-18T15:56:44.862Z,70.23
2023-04-18T15:59:12.369Z,70.30
2023-04-18T16:01:38.304Z,70.09
2023-04-18T16:04:04.393Z,70.14
2023-04-18T16:06:30.772Z,70.00
2023-04-18T16:08:57.333Z,70.11
2023-04-18T16:11:26.828Z,69.90
2023-04-18T16:13:55.219Z,69.93
2023-04-18T16:16:21.230Z,69.87
2023-04-18T16:18:47.207Z,69.81
2023-04-18T16:21:14.671Z,69.80
2023-04-18T16:23:40.767Z,69.92
2023-04-18T16:26:06.902Z,69.82
2023-04-18T16:28:37.016Z,69.77
2023-04-18T16:31:05.242Z,69.62
2023-04-18T16:33:31.972Z,69.66
2023-04-18T16:36:01.823Z,69.72
2023-04-18T16:38:28.196Z,69.74
2023-04-18T16:40:57.071Z,69.95
2023-04-18T16:43:26.108Z,70.02
2023-04-18T16:45:56.870Z,70.03
2023-04-18T16:48:23.797Z,70.14
2023-04-18T16:50:49.972Z,70.11
2023-04-18T16:53:16.105Z,70.18
2023-04-18T16:55:42.158Z,70.20
2023-04-18T16:58:08.209Z,70.14
2023-04-18T17:00:37.724Z,70.24
2023-04-18T17:03:06.751Z,70.42
2023-04-18T17:05:32.929Z,70.47
2023-04-18T17:07:59.724Z,70.43
2023-04-18T17:10:25.832Z,70.35
2023-04-18T17:12:52.590Z,70.29
2023-04-18T17:15:18.854Z,70.06
2023-04-18T17:17:45.205Z,69.98
2023-04-18T17:20:11.850Z,69.91
2023-04-18T17:22:37.981Z,69.86
2023-04-18T17:25:04.666Z,69.90
2023-04-18T17:27:30.642Z,69.94
2023-04-18T17:29:56.559Z,70.12
2023-04-18T17:32:22.920Z,70.19
2023-04-18T17:34:50.024Z,70.26
2023-04-18T17:37:16.541Z,70.34
2023-04-18T17:39:43.122Z,70.49
2023-04-18T17:42:09.219Z,70.56
2023-04-18T17:44:38.942Z,70.71
2023-04-18T17:47:06.072Z,70.86
2023-04-18T17:49:35.466Z,70.95
2023-04-18T17:52:02.383Z,71.07
2023-04-18T17:54:28.282Z,71.13
2023-04-18T17:56:54.248Z,71.20
2023-04-18T17:59:20.204Z,71.35
2023-04-18T18:01:46.130Z,71.59
2023-04-18T18:04:12.819Z,71.63
2023-04-18T18:06:39.297Z,71.83
2023-04-18T18:09:05.539Z,72.05
2023-04-18T18:11:31.625Z,72.14
2023-04-18T18:13:57.587Z,72.45
2023-04-18T18:16:24.082Z,72.51
2023-04-18T18:18:50.324Z,72.56
2023-04-18T18:21:17.447Z,72.69
2023-04-18T18:23:43.448Z,72.92
2023-04-18T18:26:09.576Z,72.92
2023-04-18T18:28:36.066Z,72.96
2023-04-18T18:31:03.529Z,73.38
2023-04-18T18:33:29.550Z,73.44
2023-04-18T18:35:58.448Z,73.37
2023-04-18T18:38:24.820Z,73.53
2023-04-18T18:40:51.101Z,73.61
2023-04-18T18:43:16.998Z,73.64
2023-04-18T18:45:42.861Z,73.69
2023-04-18T18:48:09.624Z,73.71
2023-04-18T18:50:35.608Z,73.77
2023-04-18T18:53:01.599Z,74.03
2023-04-18T18:55:29.174Z,73.99
2023-04-18T18:57:55.100Z,74.01
2023-04-18T19:00:20.957Z,74.07
2023-04-18T19:02:47.783Z,74.02
2023-04-18T19:05:14.222Z,74.06
2023-04-18T19:07:43.364Z,74.00
2023-04-18T19:10:10.189Z,74.07
2023-04-18T19:12:37.387Z,74.11
2023-04-18T19:15:04.531Z,74.31
2023-04-18T19:17:30.754Z,74.28
2023-04-18T19:19:58.549Z,74.21
2023-04-18T19:22:24.567Z,74.25
2023-04-18T19:24:51.303Z,74.31
2023-04-18T19:27:17.260Z,74.37
2023-04-18T19:29:43.599Z,74.40
2023-04-18T19:32:09.855Z,74.44
2023-04-18T19:34:36.781Z,74.50
2023-04-18T19:37:03.446Z,74.64
2023-04-18T19:39:29.708Z,74.68
2023-04-18T19:41:55.724Z,74.72
2023-04-18T19:44:21.721Z,74.72
2023-04-18T19:46:47.558Z,74.87
2023-04-18T19:49:13.644Z,74.88
2023-04-18T19:51:40.278Z,75.04
2023-04-18T19:54:06.178Z,74.91
2023-04-18T19:56:32.216Z,74.98
2023-04-18T19:58:58.106Z,75.00
2023-04-18T20:01:27.034Z,75.06
2023-04-18T20:03:54.459Z,74.96
2023-04-18T20:06:21.100Z,74.91
2023-04-18T20:08:47.067Z,74.92
2023-04-18T20:11:13.664Z,74.98
2023-04-18T20:13:40.573Z,75.13
2023-04-18T20:16:08.288Z,75.25
2023-04-18T20:18:38.990Z,75.27
2023-04-18T20:21:08.277Z,75.31
2023-04-18T20:23:37.299Z,75.24
2023-04-18T20:26:03.750Z,75.15
2023-04-18T20:28:32.485Z,75.32
2023-04-18T20:30:58.521Z,75.59
2023-04-18T20:33:24.653Z,75.70
2023-04-18T20:35:50.529Z,75.66
2023-04-18T20:38:16.428Z,75.62
2023-04-18T20:40:45.131Z,75.74
2023-04-18T20:43:12.866Z,75.81
2023-04-18T20:45:42.003Z,75.94
2023-04-18T20:48:09.253Z,76.02
2023-04-18T20:50:35.193Z,76.51
2023-04-18T20:53:01.596Z,76.57
2023-04-18T20:55:27.610Z,76.49
2023-04-18T20:57:53.497Z,76.71
2023-04-18T21:00:19.499Z,76.51
2023-04-18T21:02:45.563Z,76.42
2023-04-18T21:05:11.611Z,76.67
2023-04-18T21:07:37.460Z,76.79
2023-04-18T21:10:03.824Z,76.91
2023-04-18T21:12:29.754Z,76.84
2023-04-18T21:14:55.697Z,76.68
2023-04-18T21:17:21.835Z,76.71
2023-04-18T21:19:48.757Z,76.70
2023-04-18T21:22:16.096Z,76.76
2023-04-18T21:24:42.806Z,76.75
2023-04-18T21:27:10.034Z,76.90
2023-04-18T21:29:36.449Z,76.78
2023-04-18T21:32:02.508Z,76.72
2023-04-18T21:34:28.750Z,76.70
2023-04-18T21:36:54.796Z,76.73
2023-04-18T21:39:20.723Z,76.94
2023-04-18T21:41:46.670Z,77.03
2023-04-18T21:44:12.810Z,76.87
2023-04-18T21:46:38.906Z,76.92
2023-04-18T21:49:06.115Z,76.93
2023-04-18T21:51:32.176Z,77.12
2023-04-18T21:53:58.602Z,77.15
2023-04-18T21:56:24.587Z,77.19
2023-04-18T21:58:50.516Z,77.20
2023-04-18T22:01:16.549Z,77.21
2023-04-18T22:03:42.596Z,77.33
2023-04-18T22:06:08.906Z,77.31
2023-04-18T22:08:35.386Z,77.26
2023-04-18T22:11:01.284Z,77.48
2023-04-18T22:13:32.298Z,77.51
2023-04-18T22:16:05.114Z,77.48
2023-04-18T22:18:35.265Z,77.79
2023-04-18T22:21:02.729Z,77.68
2023-04-18T22:23:29.606Z,77.79
2023-04-18T22:25:55.811Z,77.63
2023-04-18T22:28:27.097Z,77.61
2023-04-18T22:30:53.177Z,77.61
2023-04-18T22:33:19.298Z,77.37
2023-04-18T22:35:47.073Z,77.43
2023-04-18T22:38:13.193Z,77.29
2023-04-18T22:40:39.149Z,77.31
2023-04-18T22:43:04.964Z,77.23
2023-04-18T22:45:30.861Z,77.31
2023-04-18T22:47:56.698Z,77.23
2023-04-18T22:50:22.719Z,77.23
2023-04-18T22:52:49.844Z,77.24
2023-04-18T22:55:16.052Z,77.22
2023-04-18T22:57:42.088Z,77.40
2023-04-18T23:00:12.931Z,77.40
2023-04-18T23:02:39.040Z,77.37
2023-04-18T23:05:06.691Z,77.31
2023-04-18T23:07:32.772Z,77.30
2023-04-18T23:09:58.687Z,77.50
2023-04-18T23:12:24.657Z,77.62
2023-04-18T23:14:50.657Z,77.42
2023-04-18T23:17:16.477Z,77.45
2023-04-18T23:19:44.529Z,77.39
2023-04-18T23:22:10.387Z,77.41
2023-04-18T23:24:36.293Z,77.40
2023-04-18T23:27:02.290Z,77.42
2023-04-18T23:29:28.296Z,77.38
2023-04-18T23:31:54.382Z,77.29
2023-04-18T23:34:20.298Z,77.32
2023-04-18T23:36:46.487Z,77.56
2023-04-18T23:39:12.370Z,77.70
2023-04-18T23:41:38.341Z,77.89
2023-04-18T23:44:04.985Z,77.91
2023-04-18T23:46:30.923Z,77.86
2023-04-18T23:48:56.846Z,77.97
2023-04-18T23:51:22.751Z,77.95
2023-04-18T23:53:48.643Z,77.95
2023-04-18T23:56:14.716Z,77.80
2023-04-18T23:58:40.632Z,77.79
